createdAt,value
2018-09-09T00:01:10.319Z,100400.70
2018-09-09T00:03:39.299Z,100405.77
2018-09-09T00:06:08.302Z,100398.88
2018-09-09T00:08:37.305Z,100402.87
2018-09-09T00:11:06.294Z,100399.07
2018-09-09T00:13:35.563Z,100398.67
2018-09-09T00:16:04.557Z,100399.78
2018-09-09T00:18:33.573Z,100401.64
2018-09-09T00:21:02.554Z,100404.64
2018-09-09T00:23:31.608Z,100407.26
2018-09-09T00:26:00.690Z,100403.00
2018-09-09T00:28:29.711Z,100400.97
2018-09-09T00:30:58.784Z,100408.05
2018-09-09T00:33:27.795Z,100403.13
2018-09-09T00:35:56.811Z,100407.36
2018-09-09T00:38:25.839Z,100403.62
2018-09-09T00:40:54.854Z,100394.89
2018-09-09T00:43:23.943Z,100395.51
2018-09-09T00:45:53.154Z,100389.64
2018-09-09T00:48:22.167Z,100391.41
2018-09-09T00:51:55.219Z,100392.52
2018-09-09T00:54:24.235Z,100396.47
2018-09-09T00:56:53.294Z,100400.98
2018-09-09T00:59:22.310Z,100396.59
2018-09-09T01:01:51.343Z,100397.66
2018-09-09T01:04:20.358Z,100405.73
2018-09-09T01:06:49.372Z,100401.25
2018-09-09T01:09:18.411Z,100396.70
2018-09-09T01:11:47.418Z,100402.64
2018-09-09T01:14:16.742Z,100404.80
2018-09-09T01:16:45.833Z,100409.05
2018-09-09T01:19:14.855Z,100405.86
2018-09-09T01:21:43.879Z,100402.99
2018-09-09T01:24:12.891Z,100403.72
2018-09-09T01:26:41.922Z,100403.59
2018-09-09T01:29:10.931Z,100408.58
2018-09-09T01:31:40.298Z,100401.45
2018-09-09T01:34:09.403Z,100392.90
2018-09-09T01:36:38.403Z,100402.06
2018-09-09T01:39:08.476Z,100401.70
2018-09-09T01:41:37.687Z,100406.09
2018-09-09T01:44:06.797Z,100405.00
2018-09-09T01:46:35.797Z,100399.06
2018-09-09T01:49:04.796Z,100398.12
2018-09-09T01:51:33.838Z,100408.55
2018-09-09T01:54:03.783Z,100405.47
2018-09-09T01:56:32.883Z,100407.11
2018-09-09T01:59:01.888Z,100402.83
2018-09-09T02:01:30.891Z,100407.44
2018-09-09T02:03:59.931Z,100405.06
2018-09-09T02:06:28.942Z,100403.25
2018-09-09T02:08:57.970Z,100401.33
2018-09-09T02:11:26.975Z,100395.04
2018-09-09T02:13:56.014Z,100408.78
2018-09-09T02:16:25.067Z,100406.64
2018-09-09T02:18:54.075Z,100410.69
2018-09-09T02:21:23.106Z,100409.61
2018-09-09T02:23:52.105Z,100413.16
2018-09-09T02:26:21.155Z,100405.10
2018-09-09T02:28:50.172Z,100408.31
2018-09-09T02:31:19.214Z,100408.22
2018-09-09T02:33:48.244Z,100405.52
2018-09-09T02:36:17.270Z,100402.41
2018-09-09T02:38:46.370Z,100402.91
2018-09-09T02:41:15.379Z,100399.70
2018-09-09T02:43:44.589Z,100404.31
2018-09-09T02:46:13.507Z,100402.72
2018-09-09T02:48:42.516Z,100403.04
2018-09-09T02:51:11.595Z,100405.31
2018-09-09T02:53:40.710Z,100408.71
2018-09-09T02:56:09.712Z,100406.84
2018-09-09T02:58:38.739Z,100407.30
2018-09-09T03:01:08.035Z,100410.95
2018-09-09T03:03:37.380Z,100412.05
2018-09-09T03:06:06.498Z,100413.83
2018-09-09T03:08:35.514Z,100422.36
2018-09-09T03:11:09.871Z,100422.22
2018-09-09T03:13:39.075Z,100423.95
2018-09-09T03:16:08.150Z,100417.11
2018-09-09T03:18:37.166Z,100421.69
2018-09-09T03:21:06.230Z,100414.80
2018-09-09T03:23:35.463Z,100414.88
2018-09-09T03:26:04.468Z,100416.17
2018-09-09T03:28:33.858Z,100416.98
2018-09-09T03:31:02.774Z,100415.00
2018-09-09T03:33:31.771Z,100419.22
2018-09-09T03:36:00.799Z,100421.83
2018-09-09T03:38:29.799Z,100421.71
2018-09-09T03:40:58.838Z,100423.58
2018-09-09T03:43:27.906Z,100425.78
2018-09-09T03:45:56.923Z,100423.42
2018-09-09T03:48:26.042Z,100417.90
2018-09-09T03:50:55.048Z,100420.41
2018-09-09T03:53:24.067Z,100414.97
2018-09-09T03:55:53.071Z,100416.97
2018-09-09T03:58:22.465Z,100417.83
2018-09-09T04:00:51.496Z,100426.70
2018-09-09T04:03:20.515Z,100421.34
2018-09-09T04:05:49.537Z,100425.69
2018-09-09T04:08:18.539Z,100428.29
2018-09-09T04:10:47.575Z,100432.05
2018-09-09T04:13:16.582Z,100437.28
2018-09-09T04:15:45.611Z,100433.22
2018-09-09T04:18:14.639Z,100433.92
2018-09-09T04:20:43.660Z,100422.86
2018-09-09T04:23:12.731Z,100418.89
2018-09-09T04:25:41.950Z,100419.80
2018-09-09T04:28:10.987Z,100416.45
2018-09-09T04:30:40.104Z,100420.11
2018-09-09T04:33:09.111Z,100422.09
2018-09-09T04:35:38.135Z,100423.86
2018-09-09T04:38:07.287Z,100422.28
2018-09-09T04:40:36.400Z,100427.48
2018-09-09T04:43:05.403Z,100436.02
2018-09-09T04:45:34.431Z,100434.25
2018-09-09T04:48:03.431Z,100436.39
2018-09-09T04:50:32.510Z,100434.13
2018-09-09T04:53:01.604Z,100434.84
2018-09-09T04:55:30.660Z,100439.48
2018-09-09T04:57:59.683Z,100448.26
2018-09-09T05:00:28.739Z,100450.40
2018-09-09T05:02:57.784Z,100455.86
2018-09-09T05:05:26.835Z,100462.53
2018-09-09T05:07:55.860Z,100466.69
2018-09-09T05:10:24.884Z,100466.28
2018-09-09T05:12:53.967Z,100463.30
2018-09-09T05:15:23.056Z,100472.36
2018-09-09T05:17:52.091Z,100471.49
2018-09-09T05:20:21.091Z,100472.02
2018-09-09T05:22:50.203Z,100467.30
2018-09-09T05:25:19.199Z,100467.23
2018-09-09T05:27:48.228Z,100462.46
2018-09-09T05:30:17.239Z,100464.84
2018-09-09T05:32:46.287Z,100458.84
2018-09-09T05:35:15.308Z,100464.84
2018-09-09T05:37:44.351Z,100465.84
2018-09-09T05:40:13.378Z,100473.58
2018-09-09T05:42:42.375Z,100465.91
2018-09-09T05:45:11.428Z,100467.70
2018-09-09T05:47:40.417Z,100466.80
2018-09-09T05:50:09.431Z,100467.78
2018-09-09T05:52:38.456Z,100468.29
2018-09-09T05:55:07.487Z,100479.33
2018-09-09T05:57:36.618Z,100488.23
2018-09-09T06:00:05.616Z,100488.97
2018-09-09T06:02:34.695Z,100492.76
2018-09-09T06:05:03.727Z,100499.66
2018-09-09T06:07:32.739Z,100501.30
2018-09-09T06:10:01.787Z,100502.00
2018-09-09T06:12:30.795Z,100500.56
2018-09-09T06:14:59.851Z,100491.05
2018-09-09T06:17:28.899Z,100484.29
2018-09-09T06:19:57.909Z,100486.39
2018-09-09T06:22:27.343Z,100487.59
2018-09-09T06:24:56.827Z,100492.08
2018-09-09T06:27:26.119Z,100494.13
2018-09-09T06:29:55.188Z,100497.48
2018-09-09T06:32:24.375Z,100495.50
2018-09-09T06:34:53.392Z,100489.84
2018-09-09T06:37:22.479Z,100492.58
2018-09-09T06:39:51.521Z,100501.82
2018-09-09T06:42:20.538Z,100504.53
2018-09-09T06:44:49.548Z,100507.59
2018-09-09T06:47:18.578Z,100503.58
2018-09-09T06:49:47.597Z,100502.83
2018-09-09T06:52:16.931Z,100499.70
2018-09-09T06:54:46.012Z,100490.38
2018-09-09T06:57:18.062Z,100496.69
2018-09-09T06:59:47.202Z,100504.50
2018-09-09T07:02:16.272Z,100509.89
2018-09-09T07:04:45.266Z,100493.16
2018-09-09T07:07:14.293Z,100490.39
2018-09-09T07:09:43.372Z,100488.25
2018-09-09T07:12:12.378Z,100485.68
2018-09-09T07:14:41.446Z,100484.31
2018-09-09T07:17:10.788Z,100500.23
2018-09-09T07:19:39.723Z,100489.05
2018-09-09T07:22:08.894Z,100492.55
2018-09-09T07:24:37.935Z,100500.31
2018-09-09T07:27:07.171Z,100503.09
2018-09-09T07:29:36.486Z,100504.08
2018-09-09T07:32:05.479Z,100506.25
2018-09-09T07:34:34.492Z,100505.34
2018-09-09T07:37:03.553Z,100503.12
2018-09-09T07:39:32.563Z,100510.22
2018-09-09T07:42:01.851Z,100517.19
2018-09-09T07:44:30.856Z,100522.12
2018-09-09T07:46:59.864Z,100520.72
2018-09-09T07:49:28.889Z,100529.88
2018-09-09T07:51:57.924Z,100536.52
2018-09-09T07:54:26.898Z,100538.48
2018-09-09T07:56:55.918Z,100535.70
2018-09-09T07:59:25.020Z,100525.44
2018-09-09T08:01:54.033Z,100530.02
2018-09-09T08:04:23.157Z,100524.59
2018-09-09T08:06:52.425Z,100516.89
2018-09-09T08:09:21.627Z,100514.55
2018-09-09T08:11:50.634Z,100519.77
2018-09-09T08:14:19.684Z,100531.17
2018-09-09T08:16:48.740Z,100530.02
2018-09-09T08:19:17.890Z,100529.51
2018-09-09T08:21:46.987Z,100527.67
2018-09-09T08:24:16.021Z,100528.55
2018-09-09T08:26:45.045Z,100526.30
2018-09-09T08:29:14.075Z,100526.42
2018-09-09T08:31:43.103Z,100528.32
2018-09-09T08:34:12.139Z,100533.22
2018-09-09T08:36:41.150Z,100523.48
2018-09-09T08:39:11.498Z,100526.88
2018-09-09T08:41:40.820Z,100536.96
2018-09-09T08:44:10.691Z,100536.61
2018-09-09T08:46:39.887Z,100534.39
2018-09-09T08:49:08.919Z,100535.31
2018-09-09T08:51:37.939Z,100543.73
2018-09-09T08:54:07.048Z,100549.94
2018-09-09T08:56:36.058Z,100551.59
2018-09-09T08:59:05.224Z,100558.55
2018-09-09T09:01:34.252Z,100561.20
2018-09-09T09:04:03.371Z,100544.53
2018-09-09T09:06:32.379Z,100548.28
2018-09-09T09:09:01.379Z,100546.59
2018-09-09T09:11:30.399Z,100545.05
2018-09-09T09:13:59.506Z,100547.09
2018-09-09T09:16:28.623Z,100545.44
2018-09-09T09:18:57.844Z,100551.84
2018-09-09T09:21:26.923Z,100552.47
2018-09-09T09:23:55.938Z,100541.28
2018-09-09T09:26:24.946Z,100540.27
2018-09-09T09:28:54.068Z,100535.56
2018-09-09T09:31:23.079Z,100546.96
2018-09-09T09:33:52.115Z,100554.92
2018-09-09T09:36:21.123Z,100557.23
2018-09-09T09:38:50.159Z,100551.61
2018-09-09T09:41:19.184Z,100549.15
2018-09-09T09:43:48.388Z,100540.36
2018-09-09T09:46:17.412Z,100541.37
2018-09-09T09:48:46.540Z,100538.05
2018-09-09T09:51:15.563Z,100540.36
2018-09-09T09:53:44.574Z,100529.14
2018-09-09T09:56:13.606Z,100523.52
2018-09-09T09:58:42.667Z,100525.81
2018-09-09T10:01:11.671Z,100526.50
2018-09-09T10:03:40.756Z,100535.26
2018-09-09T10:06:09.703Z,100525.81
2018-09-09T10:08:38.707Z,100517.53
2018-09-09T10:11:07.818Z,100524.76
2018-09-09T10:13:36.855Z,100521.75
2018-09-09T10:16:05.862Z,100515.13
2018-09-09T10:18:34.880Z,100512.84
2018-09-09T10:21:03.944Z,100515.53
2018-09-09T10:23:32.967Z,100521.09
2018-09-09T10:26:01.986Z,100515.62
2018-09-09T10:28:31.003Z,100513.19
2018-09-09T10:31:06.777Z,100513.33
2018-09-09T10:33:35.807Z,100517.25
2018-09-09T10:36:04.839Z,100511.46
2018-09-09T10:38:33.840Z,100507.35
2018-09-09T10:41:02.877Z,100500.94
2018-09-09T10:43:31.915Z,100506.98
2018-09-09T10:46:00.957Z,100500.09
2018-09-09T10:48:30.188Z,100500.72
2018-09-09T10:50:59.208Z,100508.09
2018-09-09T10:53:28.225Z,100504.00
2018-09-09T10:55:57.259Z,100502.30
2018-09-09T10:58:26.265Z,100506.02
2018-09-09T11:00:55.286Z,100515.61
2018-09-09T11:03:24.300Z,100510.23
2018-09-09T11:05:53.333Z,100508.18
2018-09-09T11:08:22.332Z,100509.59
2018-09-09T11:10:51.347Z,100507.58
2018-09-09T11:13:20.352Z,100508.56
2018-09-09T11:15:49.479Z,100507.33
2018-09-09T11:18:18.495Z,100499.41
2018-09-09T11:20:47.526Z,100499.11
2018-09-09T11:23:16.650Z,100498.95
2018-09-09T11:25:45.739Z,100497.53
2018-09-09T11:28:14.747Z,100494.91
2018-09-09T11:30:44.108Z,100493.91
2018-09-09T11:33:13.323Z,100491.21
2018-09-09T11:35:42.336Z,100487.28
2018-09-09T11:38:11.363Z,100482.45
2018-09-09T11:40:40.431Z,100484.09
2018-09-09T11:43:10.898Z,100484.18
2018-09-09T11:45:39.947Z,100480.67
2018-09-09T11:48:15.291Z,100478.28
2018-09-09T11:50:44.310Z,100477.44
2018-09-09T11:53:13.476Z,100478.41
2018-09-09T11:55:42.419Z,100473.84
2018-09-09T11:58:11.472Z,100469.44
2018-09-09T12:00:40.487Z,100474.47
2018-09-09T12:03:10.548Z,100478.18
2018-09-09T12:05:39.560Z,100479.16
2018-09-09T12:08:08.603Z,100475.80
2018-09-09T12:10:37.614Z,100478.96
2018-09-09T12:13:07.847Z,100480.04
2018-09-09T12:15:36.864Z,100479.67
2018-09-09T12:18:05.886Z,100473.02
2018-09-09T12:20:34.902Z,100474.54
2018-09-09T12:23:06.991Z,100473.22
2018-09-09T12:25:36.008Z,100475.44
2018-09-09T12:28:05.081Z,100469.67
2018-09-09T12:30:34.092Z,100471.87
2018-09-09T12:33:04.646Z,100467.58
2018-09-09T12:35:33.660Z,100474.95
2018-09-09T12:38:02.683Z,100468.95
2018-09-09T12:40:31.716Z,100471.18
2018-09-09T12:43:07.155Z,100463.24
2018-09-09T12:45:41.483Z,100464.68
2018-09-09T12:48:16.020Z,100462.02
2018-09-09T12:50:45.040Z,100458.45
2018-09-09T12:53:15.499Z,100456.41
2018-09-09T12:55:44.511Z,100456.61
2018-09-09T12:58:13.668Z,100453.23
2018-09-09T13:00:42.672Z,100452.25
2018-09-09T13:03:13.095Z,100455.11
2018-09-09T13:05:42.193Z,100453.82
2018-09-09T13:08:11.227Z,100442.34
2018-09-09T13:10:40.269Z,100445.14
2018-09-09T13:13:16.687Z,100448.84
2018-09-09T13:15:45.937Z,100445.54
2018-09-09T13:18:15.143Z,100442.77
2018-09-09T13:20:44.615Z,100449.86
2018-09-09T13:23:15.352Z,100442.72
2018-09-09T13:25:44.351Z,100444.03
2018-09-09T13:28:13.401Z,100435.46
2018-09-09T13:30:42.530Z,100431.90
2018-09-09T13:33:11.549Z,100437.91
2018-09-09T13:35:40.560Z,100440.90
2018-09-09T13:38:09.568Z,100431.69
2018-09-09T13:40:38.583Z,100429.12
2018-09-09T13:43:09.234Z,100425.06
2018-09-09T13:45:38.347Z,100424.77
2018-09-09T13:48:07.455Z,100432.41
2018-09-09T13:50:36.415Z,100430.63
2018-09-09T13:53:05.767Z,100434.13
2018-09-09T13:55:34.780Z,100434.88
2018-09-09T13:58:03.799Z,100432.81
2018-09-09T14:00:32.828Z,100429.32
2018-09-09T14:03:01.890Z,100435.65
2018-09-09T14:05:31.140Z,100432.26
2018-09-09T14:08:00.163Z,100430.01
2018-09-09T14:10:29.200Z,100427.25
2018-09-09T14:12:58.514Z,100426.77
2018-09-09T14:15:27.716Z,100420.73
2018-09-09T14:17:56.771Z,100417.26
2018-09-09T14:20:25.807Z,100418.66
2018-09-09T14:22:54.907Z,100408.66
2018-09-09T14:25:23.919Z,100412.73
2018-09-09T14:27:53.132Z,100410.82
2018-09-09T14:30:22.183Z,100414.70
2018-09-09T14:32:57.543Z,100408.95
2018-09-09T14:35:26.563Z,100411.61
2018-09-09T14:37:55.615Z,100409.44
2018-09-09T14:40:24.667Z,100407.05
2018-09-09T14:43:00.224Z,100398.78
2018-09-09T14:45:29.628Z,100404.72
2018-09-09T14:47:58.640Z,100410.41
2018-09-09T14:50:27.747Z,100406.56
2018-09-09T14:52:56.844Z,100405.77
2018-09-09T14:55:25.885Z,100405.55
2018-09-09T14:57:54.951Z,100404.71
2018-09-09T15:00:24.030Z,100395.28
2018-09-09T15:02:52.954Z,100401.45
2018-09-09T15:05:21.975Z,100396.30
2018-09-09T15:07:51.016Z,100397.73
2018-09-09T15:10:20.047Z,100394.97
2018-09-09T15:12:50.815Z,100396.08
2018-09-09T15:15:19.819Z,100394.02
2018-09-09T15:17:48.847Z,100393.19
2018-09-09T15:20:17.863Z,100385.09
2018-09-09T15:22:48.059Z,100374.84
2018-09-09T15:25:23.679Z,100370.61
2018-09-09T15:27:52.744Z,100370.84
2018-09-09T15:30:21.884Z,100371.67
2018-09-09T15:32:52.337Z,100369.78
2018-09-09T15:35:21.398Z,100373.70
2018-09-09T15:37:50.435Z,100373.70
2018-09-09T15:40:19.457Z,100368.44
2018-09-09T15:42:49.844Z,100369.81
2018-09-09T15:45:18.883Z,100369.47
2018-09-09T15:47:47.902Z,100371.93
2018-09-09T15:50:16.912Z,100363.53
2018-09-09T15:52:45.939Z,100366.97
2018-09-09T15:55:15.009Z,100363.09
2018-09-09T15:57:44.007Z,100361.39
2018-09-09T16:00:13.038Z,100364.80
2018-09-09T16:02:42.145Z,100365.40
2018-09-09T16:05:11.200Z,100372.67
2018-09-09T16:07:40.232Z,100369.47
2018-09-09T16:10:09.271Z,100363.67
2018-09-09T16:12:41.350Z,100365.44
2018-09-09T16:15:10.343Z,100365.27
2018-09-09T16:17:39.342Z,100368.63
2018-09-09T16:20:08.439Z,100363.75
2018-09-09T16:22:38.684Z,100369.08
2018-09-09T16:25:08.060Z,100368.58
2018-09-09T16:27:37.307Z,100366.88
2018-09-09T16:30:07.509Z,100374.16
2018-09-09T16:32:36.523Z,100363.06
2018-09-09T16:35:05.540Z,100370.84
2018-09-09T16:37:34.799Z,100382.30
2018-09-09T16:40:03.834Z,100371.30
2018-09-09T16:42:33.220Z,100368.22
2018-09-09T16:45:02.244Z,100372.81
2018-09-09T16:47:31.257Z,100377.95
2018-09-09T16:50:00.306Z,100376.30
2018-09-09T16:52:29.331Z,100369.95
2018-09-09T16:54:58.358Z,100378.91
2018-09-09T16:57:27.411Z,100381.51
2018-09-09T16:59:56.451Z,100375.55
2018-09-09T17:02:25.448Z,100373.01
2018-09-09T17:04:54.464Z,100372.13
2018-09-09T17:07:23.575Z,100382.13
2018-09-09T17:09:52.620Z,100381.54
2018-09-09T17:12:21.628Z,100376.13
2018-09-09T17:14:50.640Z,100381.97
2018-09-09T17:17:19.720Z,100377.02
2018-09-09T17:19:49.706Z,100385.34
2018-09-09T17:22:19.021Z,100380.77
2018-09-09T17:24:48.415Z,100384.53
2018-09-09T17:27:17.626Z,100389.98
2018-09-09T17:29:46.644Z,100386.83
2018-09-09T17:32:15.664Z,100389.29
2018-09-09T17:34:44.672Z,100393.37
2018-09-09T17:37:14.055Z,100389.02
2018-09-09T17:39:43.344Z,100396.37
2018-09-09T17:42:12.372Z,100398.97
2018-09-09T17:44:41.840Z,100402.19
2018-09-09T17:47:10.852Z,100401.06
2018-09-09T17:49:39.915Z,100402.08
2018-09-09T17:52:08.940Z,100396.52
2018-09-09T17:54:37.992Z,100402.69
2018-09-09T17:57:07.015Z,100403.65
2018-09-09T17:59:36.072Z,100410.16
2018-09-09T18:02:05.079Z,100414.25
2018-09-09T18:04:34.131Z,100408.50
2018-09-09T18:07:03.160Z,100412.41
2018-09-09T18:09:32.215Z,100412.12
2018-09-09T18:12:01.339Z,100418.89
2018-09-09T18:14:30.367Z,100419.10
2018-09-09T18:16:59.403Z,100422.51
2018-09-09T18:19:28.695Z,100425.73
2018-09-09T18:21:57.723Z,100419.16
2018-09-09T18:24:26.792Z,100417.11
2018-09-09T18:26:55.803Z,100422.57
2018-09-09T18:29:24.849Z,100417.92
2018-09-09T18:31:54.074Z,100417.28
2018-09-09T18:34:23.114Z,100425.65
2018-09-09T18:36:52.179Z,100425.74
2018-09-09T18:39:21.192Z,100421.61
2018-09-09T18:41:50.263Z,100422.28
2018-09-09T18:44:19.319Z,100417.41
2018-09-09T18:46:48.332Z,100424.52
2018-09-09T18:49:17.505Z,100421.03
2018-09-09T18:51:46.595Z,100429.87
2018-09-09T18:54:15.620Z,100433.69
2018-09-09T18:56:44.638Z,100437.77
2018-09-09T18:59:13.658Z,100443.15
2018-09-09T19:01:42.691Z,100436.74
2018-09-09T19:04:11.731Z,100433.14
2018-09-09T19:06:40.752Z,100439.48
2018-09-09T19:09:09.763Z,100445.52
2018-09-09T19:11:38.783Z,100445.13
2018-09-09T19:14:07.882Z,100448.57
2018-09-09T19:16:36.824Z,100448.79
2018-09-09T19:19:05.843Z,100447.70
2018-09-09T19:21:34.967Z,100448.95
2018-09-09T19:24:03.979Z,100450.61
2018-09-09T19:26:32.997Z,100445.98
2018-09-09T19:29:02.006Z,100455.31
2018-09-09T19:31:37.706Z,100450.70
2018-09-09T19:34:06.768Z,100450.80
2018-09-09T19:36:35.880Z,100454.63
2018-09-09T19:39:07.503Z,100458.92
2018-09-09T19:41:36.559Z,100454.48
2018-09-09T19:44:05.744Z,100457.27
2018-09-09T19:46:34.883Z,100456.44
2018-09-09T19:49:04.488Z,100462.38
2018-09-09T19:51:33.584Z,100462.44
2018-09-09T19:54:02.777Z,100463.36
2018-09-09T19:56:31.779Z,100459.35
2018-09-09T19:59:00.831Z,100454.77
2018-09-09T20:01:29.858Z,100452.19
2018-09-09T20:03:58.880Z,100459.30
2018-09-09T20:06:27.946Z,100455.94
2018-09-09T20:08:56.943Z,100451.42
2018-09-09T20:11:25.951Z,100457.26
2018-09-09T20:13:56.535Z,100461.58
2018-09-09T20:16:25.543Z,100456.33
2018-09-09T20:18:54.579Z,100457.70
2018-09-09T20:21:23.574Z,100457.13
2018-09-09T20:23:52.639Z,100448.03
2018-09-09T20:26:21.743Z,100450.25
2018-09-09T20:28:50.743Z,100454.34
2018-09-09T20:31:19.776Z,100459.15
2018-09-09T20:33:48.788Z,100461.55
2018-09-09T20:36:17.819Z,100456.34
2018-09-09T20:38:46.859Z,100460.67
2018-09-09T20:41:15.868Z,100462.83
2018-09-09T20:43:44.894Z,100467.25
2018-09-09T20:46:13.937Z,100467.45
2018-09-09T20:48:42.979Z,100471.51
2018-09-09T20:51:11.979Z,100467.69
2018-09-09T20:53:41.031Z,100469.42
2018-09-09T20:56:10.032Z,100467.61
2018-09-09T20:58:39.047Z,100471.10
2018-09-09T21:01:08.049Z,100472.42
2018-09-09T21:03:37.129Z,100470.31
2018-09-09T21:06:06.176Z,100475.55
2018-09-09T21:08:35.215Z,100471.59
2018-09-09T21:11:04.243Z,100472.42
2018-09-09T21:13:33.279Z,100477.87
2018-09-09T21:16:02.299Z,100474.56
2018-09-09T21:18:31.319Z,100483.09
2018-09-09T21:21:00.355Z,100478.41
2018-09-09T21:23:30.735Z,100481.52
2018-09-09T21:25:59.811Z,100482.20
2018-09-09T21:28:28.823Z,100483.95
2018-09-09T21:30:57.921Z,100486.70
2018-09-09T21:33:27.015Z,100492.57
2018-09-09T21:35:56.024Z,100492.38
2018-09-09T21:38:25.059Z,100489.20
2018-09-09T21:40:54.135Z,100484.15
2018-09-09T21:43:24.788Z,100487.65
2018-09-09T21:45:53.806Z,100485.09
2018-09-09T21:48:22.842Z,100488.33
2018-09-09T21:50:51.861Z,100486.19
2018-09-09T21:53:22.054Z,100488.88
2018-09-09T21:55:51.223Z,100484.76
2018-09-09T21:58:20.263Z,100489.75
2018-09-09T22:00:54.606Z,100482.91
2018-09-09T22:03:23.639Z,100479.36
2018-09-09T22:05:52.699Z,100482.34
2018-09-09T22:08:21.784Z,100475.73
2018-09-09T22:10:50.799Z,100478.68
2018-09-09T22:13:21.651Z,100477.40
2018-09-09T22:15:50.835Z,100479.58
2018-09-09T22:18:19.847Z,100484.70
2018-09-09T22:20:49.118Z,100477.76
2018-09-09T22:23:18.129Z,100483.88
2018-09-09T22:25:48.873Z,100486.98
2018-09-09T22:28:17.878Z,100491.56
2018-09-09T22:30:46.902Z,100485.79
2018-09-09T22:33:15.919Z,100488.48
2018-09-09T22:35:46.548Z,100483.37
2018-09-09T22:38:15.599Z,100481.04
2018-09-09T22:40:44.719Z,100462.28
2018-09-09T22:43:13.787Z,100480.61
2018-09-09T22:45:42.823Z,100486.35
2018-09-09T22:48:12.359Z,100489.08
2018-09-09T22:50:41.382Z,100489.58
2018-09-09T22:53:10.400Z,100495.91
2018-09-09T22:55:39.427Z,100504.47
2018-09-09T22:58:08.457Z,100493.75
2018-09-09T23:00:37.526Z,100490.36
2018-09-09T23:03:06.928Z,100498.44
2018-09-09T23:05:36.074Z,100493.48
2018-09-09T23:08:05.021Z,100494.42
2018-09-09T23:10:34.040Z,100488.37
2018-09-09T23:13:03.107Z,100491.11
2018-09-09T23:15:32.182Z,100489.11
2018-09-09T23:18:01.179Z,100482.20
2018-09-09T23:20:30.209Z,100474.36
2018-09-09T23:22:59.215Z,100473.89
2018-09-09T23:25:28.655Z,100470.09
2018-09-09T23:27:58.422Z,100472.26
2018-09-09T23:30:27.457Z,100475.10
2018-09-09T23:32:56.467Z,100465.95
2018-09-09T23:35:25.483Z,100478.20
2018-09-09T23:37:54.503Z,100473.30
2018-09-09T23:40:23.519Z,100473.99
2018-09-09T23:42:52.539Z,100479.95
2018-09-09T23:45:21.551Z,100474.72
2018-09-09T23:47:50.567Z,100491.00
2018-09-09T23:50:19.601Z,100487.80
2018-09-09T23:52:49.731Z,100493.27
2018-09-09T23:55:18.744Z,100479.95
2018-09-09T23:57:47.755Z,100473.14
